sensor_id;sensor_type;location;lat;lon;timestamp;pressure;altitude;pressure_sealevel;temperature;humidity
70954;BME280;58618;47.490;8.736;2023-08-06T00:01:41;96025.22;;;14.08;100.00
70954;BME280;58618;47.490;8.736;2023-08-06T00:04:28;96018.06;;;14.05;100.00
70954;BME280;58618;47.490;8.736;2023-08-06T00:07:16;96015.63;;;14.00;100.00
70954;BME280;58618;47.490;8.736;2023-08-06T00:10:04;96014.38;;;13.97;100.00
70954;BME280;58618;47.490;8.736;2023-08-06T00:12:51;96025.38;;;14.03;100.00
70954;BME280;58618;47.490;8.736;2023-08-06T00:15:40;96013.63;;;13.96;100.00
70954;BME280;58618;47.490;8.736;2023-08-06T00:18:27;96009.50;;;14.13;100.00
70954;BME280;58618;47.490;8.736;2023-08-06T00:21:14;96007.06;;;13.99;100.00
70954;BME280;58618;47.490;8.736;2023-08-06T00:24:02;96011.34;;;13.95;100.00
70954;BME280;58618;47.490;8.736;2023-08-06T00:26:49;96011.66;;;13.93;100.00
70954;BME280;58618;47.490;8.736;2023-08-06T00:29:37;96018.50;;;13.98;100.00
70954;BME280;58618;47.490;8.736;2023-08-06T00:32:25;96013.47;;;13.93;100.00
70954;BME280;58618;47.490;8.736;2023-08-06T00:35:13;96008.28;;;13.84;100.00
70954;BME280;58618;47.490;8.736;2023-08-06T00:38:00;96003.84;;;13.68;100.00
70954;BME280;58618;47.490;8.736;2023-08-06T00:40:47;96011.63;;;13.76;100.00
70954;BME280;58618;47.490;8.736;2023-08-06T00:43:34;96009.19;;;13.71;100.00
70954;BME280;58618;47.490;8.736;2023-08-06T00:46:22;95994.09;;;13.73;100.00
70954;BME280;58618;47.490;8.736;2023-08-06T00:49:10;95979.91;;;13.62;100.00
70954;BME280;58618;47.490;8.736;2023-08-06T00:51:58;95984.00;;;13.54;100.00
70954;BME280;58618;47.490;8.736;2023-08-06T00:54:46;95973.50;;;13.51;100.00
70954;BME280;58618;47.490;8.736;2023-08-06T00:57:34;95965.88;;;13.46;100.00
70954;BME280;58618;47.490;8.736;2023-08-06T01:00:22;95977.31;;;13.45;100.00
70954;BME280;58618;47.490;8.736;2023-08-06T01:03:09;95964.94;;;13.33;100.00
70954;BME280;58618;47.490;8.736;2023-08-06T01:05:58;95972.22;;;13.23;100.00
70954;BME280;58618;47.490;8.736;2023-08-06T01:08:49;95972.50;;;13.13;100.00
70954;BME280;58618;47.490;8.736;2023-08-06T01:11:47;95978.09;;;13.06;100.00
70954;BME280;58618;47.490;8.736;2023-08-06T01:14:47;95967.16;;;13.09;100.00
70954;BME280;58618;47.490;8.736;2023-08-06T01:17:37;95950.63;;;12.88;100.00
70954;BME280;58618;47.490;8.736;2023-08-06T01:20:29;95959.59;;;12.90;100.00
70954;BME280;58618;47.490;8.736;2023-08-06T01:23:16;95970.16;;;12.94;100.00
70954;BME280;58618;47.490;8.736;2023-08-06T01:26:10;95969.66;;;12.83;100.00
70954;BME280;58618;47.490;8.736;2023-08-06T01:29:02;95962.59;;;12.75;100.00
70954;BME280;58618;47.490;8.736;2023-08-06T01:31:54;95965.78;;;12.63;100.00
70954;BME280;58618;47.490;8.736;2023-08-06T01:34:44;95954.47;;;12.59;100.00
70954;BME280;58618;47.490;8.736;2023-08-06T01:37:33;95947.69;;;12.72;100.00
70954;BME280;58618;47.490;8.736;2023-08-06T01:40:21;95935.09;;;12.79;100.00
70954;BME280;58618;47.490;8.736;2023-08-06T01:43:08;95942.56;;;12.89;100.00
70954;BME280;58618;47.490;8.736;2023-08-06T01:45:56;95943.81;;;13.00;100.00
70954;BME280;58618;47.490;8.736;2023-08-06T01:48:43;95946.28;;;13.05;100.00
70954;BME280;58618;47.490;8.736;2023-08-06T01:51:31;95943.97;;;13.04;100.00
70954;BME280;58618;47.490;8.736;2023-08-06T01:54:19;95949.59;;;12.97;100.00
70954;BME280;58618;47.490;8.736;2023-08-06T01:57:07;95954.19;;;13.00;100.00
70954;BME280;58618;47.490;8.736;2023-08-06T01:59:54;95950.16;;;12.86;100.00
70954;BME280;58618;47.490;8.736;2023-08-06T02:02:41;95938.91;;;12.90;100.00
70954;BME280;58618;47.490;8.736;2023-08-06T02:05:28;95938.59;;;12.83;100.00
70954;BME280;58618;47.490;8.736;2023-08-06T02:08:16;95921.66;;;12.77;100.00
70954;BME280;58618;47.490;8.736;2023-08-06T02:11:04;95934.63;;;12.77;100.00
70954;BME280;58618;47.490;8.736;2023-08-06T02:13:52;95928.97;;;12.75;100.00
70954;BME280;58618;47.490;8.736;2023-08-06T02:16:39;95913.28;;;12.72;100.00
70954;BME280;58618;47.490;8.736;2023-08-06T02:19:26;95911.13;;;12.65;100.00
70954;BME280;58618;47.490;8.736;2023-08-06T02:22:13;95910.47;;;12.51;100.00
70954;BME280;58618;47.490;8.736;2023-08-06T02:25:01;95905.13;;;12.47;100.00
70954;BME280;58618;47.490;8.736;2023-08-06T02:27:50;95911.50;;;12.41;100.00
70954;BME280;58618;47.490;8.736;2023-08-06T02:30:37;95907.13;;;12.50;100.00
70954;BME280;58618;47.490;8.736;2023-08-06T02:33:24;95904.94;;;12.44;100.00
70954;BME280;58618;47.490;8.736;2023-08-06T02:36:11;95907.94;;;12.28;100.00
70954;BME280;58618;47.490;8.736;2023-08-06T02:38:59;95908.28;;;12.36;100.00
70954;BME280;58618;47.490;8.736;2023-08-06T02:41:46;95896.56;;;12.38;100.00
70954;BME280;58618;47.490;8.736;2023-08-06T02:44:35;95895.59;;;12.25;100.00
70954;BME280;58618;47.490;8.736;2023-08-06T02:47:22;95892.28;;;12.34;100.00
70954;BME280;58618;47.490;8.736;2023-08-06T02:50:10;95886.31;;;12.24;100.00
70954;BME280;58618;47.490;8.736;2023-08-06T02:52:57;95888.50;;;12.40;100.00
70954;BME280;58618;47.490;8.736;2023-08-06T02:55:45;95885.91;;;12.31;100.00
70954;BME280;58618;47.490;8.736;2023-08-06T02:58:33;95890.63;;;12.38;100.00
70954;BME280;58618;47.490;8.736;2023-08-06T03:01:22;95890.97;;;12.45;100.00
70954;BME280;58618;47.490;8.736;2023-08-06T03:04:12;95887.66;;;12.53;100.00
70954;BME280;58618;47.490;8.736;2023-08-06T03:06:59;95883.41;;;12.57;100.00
70954;BME280;58618;47.490;8.736;2023-08-06T03:09:47;95881.88;;;12.56;100.00
70954;BME280;58618;47.490;8.736;2023-08-06T03:12:34;95883.13;;;12.67;100.00
70954;BME280;58618;47.490;8.736;2023-08-06T03:15:21;95879.16;;;12.61;100.00
70954;BME280;58618;47.490;8.736;2023-08-06T03:18:10;95886.44;;;12.59;100.00
70954;BME280;58618;47.490;8.736;2023-08-06T03:20:57;95882.22;;;12.63;100.00
70954;BME280;58618;47.490;8.736;2023-08-06T03:23:46;95874.75;;;12.61;100.00
70954;BME280;58618;47.490;8.736;2023-08-06T03:26:34;95877.47;;;12.65;100.00
70954;BME280;58618;47.490;8.736;2023-08-06T03:29:21;95875.81;;;12.69;100.00
70954;BME280;58618;47.490;8.736;2023-08-06T03:32:08;95868.53;;;12.71;100.00
70954;BME280;58618;47.490;8.736;2023-08-06T03:34:57;95876.75;;;12.73;100.00
70954;BME280;58618;47.490;8.736;2023-08-06T03:37:44;95875.22;;;12.72;100.00
70954;BME280;58618;47.490;8.736;2023-08-06T03:40:32;95875.09;;;12.77;100.00
70954;BME280;58618;47.490;8.736;2023-08-06T03:43:21;95879.25;;;12.95;100.00
70954;BME280;58618;47.490;8.736;2023-08-06T03:46:09;95865.41;;;13.08;100.00
70954;BME280;58618;47.490;8.736;2023-08-06T03:48:56;95871.06;;;13.28;100.00
70954;BME280;58618;47.490;8.736;2023-08-06T03:51:45;95873.22;;;13.26;100.00
70954;BME280;58618;47.490;8.736;2023-08-06T03:54:32;95879.47;;;13.25;100.00
70954;BME280;58618;47.490;8.736;2023-08-06T03:57:20;95873.22;;;13.26;100.00
70954;BME280;58618;47.490;8.736;2023-08-06T04:00:08;95884.16;;;13.23;100.00
70954;BME280;58618;47.490;8.736;2023-08-06T04:02:55;95867.28;;;13.25;100.00
70954;BME280;58618;47.490;8.736;2023-08-06T04:05:43;95872.28;;;13.39;100.00
70954;BME280;58618;47.490;8.736;2023-08-06T04:08:31;95876.13;;;13.41;100.00
70954;BME280;58618;47.490;8.736;2023-08-06T04:11:19;95892.44;;;13.42;100.00
70954;BME280;58618;47.490;8.736;2023-08-06T04:14:06;95885.09;;;13.44;100.00
70954;BME280;58618;47.490;8.736;2023-08-06T04:16:53;95873.53;;;13.59;100.00
70954;BME280;58618;47.490;8.736;2023-08-06T04:19:40;95891.81;;;13.62;100.00
70954;BME280;58618;47.490;8.736;2023-08-06T04:22:28;95885.41;;;13.68;100.00
70954;BME280;58618;47.490;8.736;2023-08-06T04:25:17;95900.47;;;13.92;100.00
70954;BME280;58618;47.490;8.736;2023-08-06T04:28:07;95914.94;;;14.02;100.00
70954;BME280;58618;47.490;8.736;2023-08-06T04:30:54;95924.38;;;14.15;100.00
70954;BME280;58618;47.490;8.736;2023-08-06T04:33:42;95951.38;;;14.14;100.00
70954;BME280;58618;47.490;8.736;2023-08-06T04:36:29;95954.16;;;13.74;100.00
70954;BME280;58618;47.490;8.736;2023-08-06T04:39:16;95978.34;;;13.35;100.00
70954;BME280;58618;47.490;8.736;2023-08-06T04:42:06;95971.75;;;12.81;100.00
70954;BME280;58618;47.490;8.736;2023-08-06T04:44:53;95970.38;;;12.75;100.00
70954;BME280;58618;47.490;8.736;2023-08-06T04:47:40;95981.09;;;12.60;100.00
70954;BME280;58618;47.490;8.736;2023-08-06T04:50:28;95993.00;;;12.39;100.00
70954;BME280;58618;47.490;8.736;2023-08-06T04:53:16;95983.84;;;12.33;100.00
70954;BME280;58618;47.490;8.736;2023-08-06T04:56:03;95990.91;;;12.18;100.00
70954;BME280;58618;47.490;8.736;2023-08-06T04:58:52;95985.22;;;12.08;100.00
70954;BME280;58618;47.490;8.736;2023-08-06T05:01:39;96000.13;;;12.11;100.00
70954;BME280;58618;47.490;8.736;2023-08-06T05:04:27;95987.97;;;12.11;100.00
70954;BME280;58618;47.490;8.736;2023-08-06T05:07:14;95992.69;;;12.09;100.00
70954;BME280;58618;47.490;8.736;2023-08-06T05:10:01;95989.63;;;12.07;100.00
70954;BME280;58618;47.490;8.736;2023-08-06T05:12:50;95998.09;;;11.99;100.00
70954;BME280;58618;47.490;8.736;2023-08-06T05:15:39;96007.19;;;11.97;100.00
70954;BME280;58618;47.490;8.736;2023-08-06T05:18:28;96000.38;;;12.01;100.00
70954;BME280;58618;47.490;8.736;2023-08-06T05:21:16;96002.66;;;12.02;100.00
70954;BME280;58618;47.490;8.736;2023-08-06T05:24:04;95999.41;;;12.10;100.00
70954;BME280;58618;47.490;8.736;2023-08-06T05:26:51;96001.25;;;12.18;100.00
70954;BME280;58618;47.490;8.736;2023-08-06T05:29:38;96001.25;;;12.18;100.00
70954;BME280;58618;47.490;8.736;2023-08-06T05:32:27;96010.56;;;12.42;100.00
70954;BME280;58618;47.490;8.736;2023-08-06T05:35:14;96022.06;;;12.36;100.00
70954;BME280;58618;47.490;8.736;2023-08-06T05:38:02;96013.34;;;12.54;100.00
70954;BME280;58618;47.490;8.736;2023-08-06T05:40:49;96016.88;;;12.58;100.00
70954;BME280;58618;47.490;8.736;2023-08-06T05:43:36;96021.56;;;12.87;100.00
70954;BME280;58618;47.490;8.736;2023-08-06T05:46:23;96018.84;;;12.92;100.00
70954;BME280;58618;47.490;8.736;2023-08-06T05:49:12;96025.81;;;13.14;100.00
70954;BME280;58618;47.490;8.736;2023-08-06T05:51:59;96026.06;;;13.43;100.00
70954;BME280;58618;47.490;8.736;2023-08-06T05:54:47;96024.69;;;13.54;100.00
70954;BME280;58618;47.490;8.736;2023-08-06T05:57:34;96021.81;;;13.47;100.00
70954;BME280;58618;47.490;8.736;2023-08-06T06:00:21;96015.91;;;14.41;100.00
70954;BME280;58618;47.490;8.736;2023-08-06T06:03:09;96015.25;;;15.67;100.00
70954;BME280;58618;47.490;8.736;2023-08-06T06:05:58;96024.56;;;16.30;100.00
70954;BME280;58618;47.490;8.736;2023-08-06T06:08:47;96024.16;;;18.06;100.00
70954;BME280;58618;47.490;8.736;2023-08-06T06:11:34;96014.28;;;18.28;100.00
70954;BME280;58618;47.490;8.736;2023-08-06T06:14:21;96023.66;;;19.04;100.00
70954;BME280;58618;47.490;8.736;2023-08-06T06:17:09;96021.69;;;19.63;100.00
70954;BME280;58618;47.490;8.736;2023-08-06T06:19:56;96012.34;;;17.85;100.00
70954;BME280;58618;47.490;8.736;2023-08-06T06:22:45;96026.75;;;20.10;100.00
70954;BME280;58618;47.490;8.736;2023-08-06T06:25:32;96026.97;;;20.21;100.00
70954;BME280;58618;47.490;8.736;2023-08-06T06:28:19;96033.16;;;20.71;100.00
70954;BME280;58618;47.490;8.736;2023-08-06T06:31:07;96020.03;;;21.95;100.00
70954;BME280;58618;47.490;8.736;2023-08-06T06:33:55;96029.31;;;21.59;96.02
70954;BME280;58618;47.490;8.736;2023-08-06T06:36:42;96033.88;;;22.59;93.51
70954;BME280;58618;47.490;8.736;2023-08-06T06:39:31;96031.91;;;22.49;88.88
70954;BME280;58618;47.490;8.736;2023-08-06T06:42:18;96031.13;;;23.26;81.71
70954;BME280;58618;47.490;8.736;2023-08-06T06:45:07;96041.72;;;19.09;100.00
70954;BME280;58618;47.490;8.736;2023-08-06T06:47:54;96049.56;;;17.33;100.00
70954;BME280;58618;47.490;8.736;2023-08-06T06:50:42;96052.06;;;17.17;100.00
70954;BME280;58618;47.490;8.736;2023-08-06T06:53:29;96058.56;;;17.11;100.00
70954;BME280;58618;47.490;8.736;2023-08-06T06:56:18;96066.97;;;16.30;100.00
70954;BME280;58618;47.490;8.736;2023-08-06T06:59:05;96058.22;;;15.93;100.00
70954;BME280;58618;47.490;8.736;2023-08-06T07:01:52;96074.78;;;15.89;100.00
70954;BME280;58618;47.490;8.736;2023-08-06T07:04:40;96066.97;;;15.89;100.00
70954;BME280;58618;47.490;8.736;2023-08-06T07:07:27;96058.44;;;15.21;100.00
70954;BME280;58618;47.490;8.736;2023-08-06T07:10:14;96062.00;;;15.16;100.00
70954;BME280;58618;47.490;8.736;2023-08-06T07:13:03;96059.56;;;15.03;100.00
70954;BME280;58618;47.490;8.736;2023-08-06T07:15:50;96072.06;;;15.18;100.00
70954;BME280;58618;47.490;8.736;2023-08-06T07:18:38;96063.91;;;15.28;100.00
70954;BME280;58618;47.490;8.736;2023-08-06T07:21:25;96082.44;;;14.54;100.00
70954;BME280;58618;47.490;8.736;2023-08-06T07:24:12;96084.91;;;14.42;100.00
70954;BME280;58618;47.490;8.736;2023-08-06T07:27:00;96089.75;;;14.35;100.00
70954;BME280;58618;47.490;8.736;2023-08-06T07:29:48;96084.28;;;14.45;100.00
70954;BME280;58618;47.490;8.736;2023-08-06T07:32:36;96084.56;;;14.35;100.00
70954;BME280;58618;47.490;8.736;2023-08-06T07:35:23;96069.78;;;14.10;100.00
70954;BME280;58618;47.490;8.736;2023-08-06T07:38:10;96097.69;;;14.30;100.00
70954;BME280;58618;47.490;8.736;2023-08-06T07:40:57;96099.56;;;14.38;100.00
70954;BME280;58618;47.490;8.736;2023-08-06T07:43:48;96097.72;;;14.56;100.00
70954;BME280;58618;47.490;8.736;2023-08-06T07:46:36;96105.22;;;14.49;100.00
70954;BME280;58618;47.490;8.736;2023-08-06T07:49:24;96113.28;;;14.56;100.00
70954;BME280;58618;47.490;8.736;2023-08-06T07:52:12;96099.72;;;14.42;100.00
70954;BME280;58618;47.490;8.736;2023-08-06T07:55:00;96112.50;;;14.21;100.00
70954;BME280;58618;47.490;8.736;2023-08-06T07:57:48;96109.75;;;14.26;100.00
70954;BME280;58618;47.490;8.736;2023-08-06T08:00:36;96114.44;;;14.07;100.00
70954;BME280;58618;47.490;8.736;2023-08-06T08:03:25;96118.69;;;13.85;100.00
70954;BME280;58618;47.490;8.736;2023-08-06T08:06:12;96123.44;;;13.92;100.00
70954;BME280;58618;47.490;8.736;2023-08-06T08:08:59;96131.63;;;13.77;100.00
70954;BME280;58618;47.490;8.736;2023-08-06T08:11:47;96140.47;;;13.76;100.00
70954;BME280;58618;47.490;8.736;2023-08-06T08:14:34;96135.41;;;13.62;100.00
70954;BME280;58618;47.490;8.736;2023-08-06T08:17:23;96139.59;;;13.41;100.00
70954;BME280;58618;47.490;8.736;2023-08-06T08:20:12;96140.94;;;13.69;100.00
70954;BME280;58618;47.490;8.736;2023-08-06T08:22:59;96145.94;;;13.66;100.00
70954;BME280;58618;47.490;8.736;2023-08-06T08:25:47;96148.84;;;13.33;100.00
70954;BME280;58618;47.490;8.736;2023-08-06T08:28:34;96153.88;;;13.30;100.00
70954;BME280;58618;47.490;8.736;2023-08-06T08:31:21;96129.41;;;13.14;100.00
70954;BME280;58618;47.490;8.736;2023-08-06T08:34:09;96137.75;;;13.10;100.00
70954;BME280;58618;47.490;8.736;2023-08-06T08:36:57;96151.69;;;13.01;100.00
70954;BME280;58618;47.490;8.736;2023-08-06T08:39:45;96159.53;;;13.09;100.00
70954;BME280;58618;47.490;8.736;2023-08-06T08:42:32;96156.22;;;13.18;100.00
70954;BME280;58618;47.490;8.736;2023-08-06T08:45:20;96152.94;;;13.26;100.00
70954;BME280;58618;47.490;8.736;2023-08-06T08:48:11;96158.75;;;13.09;100.00
70954;BME280;58618;47.490;8.736;2023-08-06T08:51:00;96148.59;;;13.13;100.00
70954;BME280;58618;47.490;8.736;2023-08-06T08:53:52;96160.47;;;13.36;100.00
70954;BME280;58618;47.490;8.736;2023-08-06T08:56:41;96168.63;;;13.60;100.00
70954;BME280;58618;47.490;8.736;2023-08-06T08:59:29;96167.03;;;13.81;100.00
70954;BME280;58618;47.490;8.736;2023-08-06T09:02:16;96176.63;;;13.81;100.00
70954;BME280;58618;47.490;8.736;2023-08-06T09:05:04;96173.69;;;14.22;100.00
70954;BME280;58618;47.490;8.736;2023-08-06T09:07:52;96178.03;;;13.87;100.00
70954;BME280;58618;47.490;8.736;2023-08-06T09:10:43;96152.53;;;13.80;100.00
70954;BME280;58618;47.490;8.736;2023-08-06T09:13:30;96188.53;;;13.42;100.00
70954;BME280;58618;47.490;8.736;2023-08-06T09:16:17;96199.47;;;13.39;100.00
70954;BME280;58618;47.490;8.736;2023-08-06T09:19:08;96192.00;;;13.38;100.00
70954;BME280;58618;47.490;8.736;2023-08-06T09:21:55;96203.63;;;13.49;100.00
70954;BME280;58618;47.490;8.736;2023-08-06T09:24:43;96202.53;;;13.72;100.00
70954;BME280;58618;47.490;8.736;2023-08-06T09:27:33;96199.31;;;13.67;100.00
70954;BME280;58618;47.490;8.736;2023-08-06T09:30:29;96207.56;;;13.69;100.00
70954;BME280;58618;47.490;8.736;2023-08-06T09:33:18;96203.44;;;14.16;100.00
70954;BME280;58618;47.490;8.736;2023-08-06T09:36:09;96203.28;;;14.21;100.00
70954;BME280;58618;47.490;8.736;2023-08-06T09:38:57;96205.69;;;14.09;100.00
70954;BME280;58618;47.490;8.736;2023-08-06T09:41:46;96201.13;;;14.06;100.00
70954;BME280;58618;47.490;8.736;2023-08-06T09:44:35;96205.19;;;14.55;100.00
70954;BME280;58618;47.490;8.736;2023-08-06T09:47:24;96192.38;;;14.58;100.00
70954;BME280;58618;47.490;8.736;2023-08-06T09:50:15;96200.00;;;15.06;100.00
70954;BME280;58618;47.490;8.736;2023-08-06T09:53:06;96204.13;;;15.16;100.00
70954;BME280;58618;47.490;8.736;2023-08-06T09:55:55;96199.63;;;15.42;100.00
70954;BME280;58618;47.490;8.736;2023-08-06T09:58:44;96196.66;;;15.70;100.00
70954;BME280;58618;47.490;8.736;2023-08-06T10:01:37;96200.53;;;15.46;100.00
70954;BME280;58618;47.490;8.736;2023-08-06T10:04:24;96206.34;;;15.43;100.00
70954;BME280;58618;47.490;8.736;2023-08-06T10:07:12;96211.09;;;15.58;100.00
70954;BME280;58618;47.490;8.736;2023-08-06T10:10:00;96200.44;;;15.17;100.00
70954;BME280;58618;47.490;8.736;2023-08-06T10:12:50;96212.69;;;15.16;100.00
70954;BME280;58618;47.490;8.736;2023-08-06T10:15:38;96216.47;;;15.36;100.00
70954;BME280;58618;47.490;8.736;2023-08-06T10:18:28;96217.53;;;15.35;100.00
70954;BME280;58618;47.490;8.736;2023-08-06T10:21:16;96216.63;;;15.14;100.00
70954;BME280;58618;47.490;8.736;2023-08-06T10:24:06;96215.59;;;14.80;100.00
70954;BME280;58618;47.490;8.736;2023-08-06T10:26:56;96207.81;;;14.72;100.00
70954;BME280;58618;47.490;8.736;2023-08-06T10:29:44;96212.50;;;14.44;100.00
70954;BME280;58618;47.490;8.736;2023-08-06T10:32:47;96222.84;;;14.27;100.00
70954;BME280;58618;47.490;8.736;2023-08-06T10:35:40;96205.34;;;14.50;100.00
70954;BME280;58618;47.490;8.736;2023-08-06T10:38:31;96225.63;;;14.39;100.00
70954;BME280;58618;47.490;8.736;2023-08-06T10:41:23;96229.78;;;14.57;100.00
70954;BME280;58618;47.490;8.736;2023-08-06T10:44:11;96225.31;;;14.32;100.00
70954;BME280;58618;47.490;8.736;2023-08-06T10:47:26;96242.16;;;14.60;100.00
70954;BME280;58618;47.490;8.736;2023-08-06T10:50:15;96245.53;;;14.87;100.00
70954;BME280;58618;47.490;8.736;2023-08-06T10:53:05;96233.16;;;15.09;100.00
70954;BME280;58618;47.490;8.736;2023-08-06T10:55:53;96243.56;;;14.84;100.00
70954;BME280;58618;47.490;8.736;2023-08-06T10:58:40;96242.66;;;14.79;100.00
70954;BME280;58618;47.490;8.736;2023-08-06T11:01:33;96236.50;;;14.58;100.00
70954;BME280;58618;47.490;8.736;2023-08-06T11:04:21;96239.41;;;14.65;100.00
70954;BME280;58618;47.490;8.736;2023-08-06T11:07:09;96250.25;;;14.67;100.00
70954;BME280;58618;47.490;8.736;2023-08-06T11:10:02;96254.34;;;14.51;100.00
70954;BME280;58618;47.490;8.736;2023-08-06T11:12:50;96262.31;;;14.63;100.00
70954;BME280;58618;47.490;8.736;2023-08-06T11:15:38;96248.47;;;14.28;100.00
70954;BME280;58618;47.490;8.736;2023-08-06T11:18:25;96256.81;;;14.65;100.00
70954;BME280;58618;47.490;8.736;2023-08-06T11:21:12;96264.00;;;14.68;100.00
70954;BME280;58618;47.490;8.736;2023-08-06T11:24:00;96255.16;;;14.95;100.00
70954;BME280;58618;47.490;8.736;2023-08-06T11:26:48;96246.13;;;15.18;100.00
70954;BME280;58618;47.490;8.736;2023-08-06T11:29:36;96249.78;;;15.34;100.00
70954;BME280;58618;47.490;8.736;2023-08-06T11:32:24;96254.31;;;15.72;100.00
70954;BME280;58618;47.490;8.736;2023-08-06T11:35:14;96241.94;;;15.60;100.00
70954;BME280;58618;47.490;8.736;2023-08-06T11:38:01;96256.41;;;15.87;100.00
70954;BME280;58618;47.490;8.736;2023-08-06T11:40:50;96243.38;;;15.95;100.00
70954;BME280;58618;47.490;8.736;2023-08-06T11:43:39;96252.13;;;15.91;100.00
70954;BME280;58618;47.490;8.736;2023-08-06T11:46:26;96248.84;;;15.47;100.00
70954;BME280;58618;47.490;8.736;2023-08-06T11:49:13;96251.94;;;15.32;100.00
70954;BME280;58618;47.490;8.736;2023-08-06T11:52:08;96257.78;;;15.12;100.00
70954;BME280;58618;47.490;8.736;2023-08-06T11:55:02;96258.03;;;15.36;100.00
70954;BME280;58618;47.490;8.736;2023-08-06T11:57:52;96263.53;;;15.43;100.00
70954;BME280;58618;47.490;8.736;2023-08-06T12:00:42;96265.56;;;15.12;100.00
70954;BME280;58618;47.490;8.736;2023-08-06T12:03:29;96280.22;;;14.99;100.00
70954;BME280;58618;47.490;8.736;2023-08-06T12:06:17;96266.63;;;14.94;100.00
70954;BME280;58618;47.490;8.736;2023-08-06T12:09:05;96276.72;;;15.04;100.00
70954;BME280;58618;47.490;8.736;2023-08-06T12:11:52;96288.63;;;14.96;100.00
70954;BME280;58618;47.490;8.736;2023-08-06T12:14:39;96296.50;;;14.65;100.00
70954;BME280;58618;47.490;8.736;2023-08-06T12:17:28;96288.72;;;14.65;100.00
70954;BME280;58618;47.490;8.736;2023-08-06T12:20:15;96288.28;;;14.63;100.00
70954;BME280;58618;47.490;8.736;2023-08-06T12:23:03;96295.00;;;14.64;100.00
70954;BME280;58618;47.490;8.736;2023-08-06T12:25:50;96290.16;;;14.89;100.00
70954;BME280;58618;47.490;8.736;2023-08-06T12:28:37;96300.25;;;14.99;100.00
70954;BME280;58618;47.490;8.736;2023-08-06T12:31:25;96285.84;;;15.44;100.00
70954;BME280;58618;47.490;8.736;2023-08-06T12:34:13;96280.22;;;16.06;100.00
70954;BME280;58618;47.490;8.736;2023-08-06T12:37:02;96302.22;;;16.17;100.00
70954;BME280;58618;47.490;8.736;2023-08-06T12:39:49;96285.63;;;16.30;100.00
70954;BME280;58618;47.490;8.736;2023-08-06T12:42:36;96284.78;;;16.09;100.00
70954;BME280;58618;47.490;8.736;2023-08-06T12:45:24;96292.19;;;16.36;100.00
70954;BME280;58618;47.490;8.736;2023-08-06T12:48:11;96292.06;;;16.62;100.00
70954;BME280;58618;47.490;8.736;2023-08-06T12:51:01;96289.03;;;16.22;100.00
70954;BME280;58618;47.490;8.736;2023-08-06T12:53:48;96286.78;;;16.41;100.00
70954;BME280;58618;47.490;8.736;2023-08-06T12:56:35;96277.66;;;16.65;100.00
70954;BME280;58618;47.490;8.736;2023-08-06T12:59:22;96288.94;;;16.39;100.00
70954;BME280;58618;47.490;8.736;2023-08-06T13:02:10;96297.56;;;16.31;100.00
70954;BME280;58618;47.490;8.736;2023-08-06T13:04:57;96295.72;;;16.32;100.00
70954;BME280;58618;47.490;8.736;2023-08-06T13:07:46;96299.41;;;16.31;100.00
70954;BME280;58618;47.490;8.736;2023-08-06T13:10:33;96306.84;;;16.12;100.00
70954;BME280;58618;47.490;8.736;2023-08-06T13:13:21;96304.41;;;15.98;100.00
70954;BME280;58618;47.490;8.736;2023-08-06T13:16:08;96315.88;;;16.05;100.00
70954;BME280;58618;47.490;8.736;2023-08-06T13:18:55;96307.56;;;15.66;100.00
70954;BME280;58618;47.490;8.736;2023-08-06T13:22:00;96313.41;;;15.54;100.00
70954;BME280;58618;47.490;8.736;2023-08-06T13:24:50;96315.22;;;15.19;100.00
70954;BME280;58618;47.490;8.736;2023-08-06T13:27:38;96320.13;;;15.12;100.00
70954;BME280;58618;47.490;8.736;2023-08-06T13:30:25;96307.38;;;15.71;100.00
70954;BME280;58618;47.490;8.736;2023-08-06T13:33:12;96307.19;;;15.93;100.00
70954;BME280;58618;47.490;8.736;2023-08-06T13:36:00;96308.94;;;16.18;100.00
70954;BME280;58618;47.490;8.736;2023-08-06T13:38:47;96316.91;;;16.13;100.00
70954;BME280;58618;47.490;8.736;2023-08-06T13:41:37;96310.31;;;15.60;100.00
70954;BME280;58618;47.490;8.736;2023-08-06T13:44:24;96326.25;;;15.33;100.00
70954;BME280;58618;47.490;8.736;2023-08-06T13:47:11;96341.81;;;15.16;100.00
70954;BME280;58618;47.490;8.736;2023-08-06T13:49:59;96343.03;;;15.01;100.00
70954;BME280;58618;47.490;8.736;2023-08-06T13:52:46;96330.50;;;14.95;100.00
70954;BME280;58618;47.490;8.736;2023-08-06T13:55:34;96327.75;;;15.00;100.00
70954;BME280;58618;47.490;8.736;2023-08-06T13:58:23;96338.72;;;14.97;100.00
70954;BME280;58618;47.490;8.736;2023-08-06T14:01:12;96335.53;;;15.00;100.00
70954;BME280;58618;47.490;8.736;2023-08-06T14:04:00;96351.41;;;15.07;100.00
70954;BME280;58618;47.490;8.736;2023-08-06T14:06:48;96354.50;;;15.17;100.00
70954;BME280;58618;47.490;8.736;2023-08-06T14:09:36;96354.50;;;15.26;100.00
70954;BME280;58618;47.490;8.736;2023-08-06T14:12:23;96367.97;;;15.45;100.00
70954;BME280;58618;47.490;8.736;2023-08-06T14:15:12;96365.06;;;15.38;100.00
70954;BME280;58618;47.490;8.736;2023-08-06T14:18:00;96363.84;;;15.27;100.00
70954;BME280;58618;47.490;8.736;2023-08-06T14:20:47;96363.97;;;15.05;100.00
70954;BME280;58618;47.490;8.736;2023-08-06T14:23:36;96373.28;;;15.06;100.00
70954;BME280;58618;47.490;8.736;2023-08-06T14:26:24;96373.81;;;14.68;100.00
70954;BME280;58618;47.490;8.736;2023-08-06T14:29:12;96370.22;;;14.47;100.00
70954;BME280;58618;47.490;8.736;2023-08-06T14:32:01;96367.22;;;14.54;100.00
70954;BME280;58618;47.490;8.736;2023-08-06T14:34:49;96365.88;;;14.73;100.00
70954;BME280;58618;47.490;8.736;2023-08-06T14:37:36;96353.25;;;14.41;100.00
70954;BME280;58618;47.490;8.736;2023-08-06T14:40:25;96395.34;;;14.69;100.00